sensor_id;sensor_type;location;lat;lon;timestamp;P1;durP1;ratioP1;P2;durP2;ratioP2
23573;SDS011;11965;53.640;10.050;2024-03-23T00:54:54;15.90;;;10.01;;
23573;SDS011;11965;53.640;10.050;2024-03-23T00:57:20;15.94;;;10.09;;
23573;SDS011;11965;53.640;10.050;2024-03-23T00:59:48;16.22;;;10.24;;
23573;SDS011;11965;53.640;10.050;2024-03-23T01:02:14;14.15;;;9.17;;
23573;SDS011;11965;53.640;10.050;2024-03-23T01:04:41;13.70;;;8.88;;
23573;SDS011;11965;53.640;10.050;2024-03-23T01:07:06;13.58;;;8.93;;
23573;SDS011;11965;53.640;10.050;2024-03-23T01:09:33;15.95;;;10.05;;
23573;SDS011;11965;53.640;10.050;2024-03-23T01:12:01;15.48;;;9.66;;
23573;SDS011;11965;53.640;10.050;2024-03-23T01:14:28;14.10;;;9.08;;
23573;SDS011;11965;53.640;10.050;2024-03-23T01:16:54;15.83;;;10.14;;
23573;SDS011;11965;53.640;10.050;2024-03-23T01:19:21;15.98;;;10.15;;
23573;SDS011;11965;53.640;10.050;2024-03-23T01:21:46;14.86;;;9.45;;
23573;SDS011;11965;53.640;10.050;2024-03-23T01:24:14;14.68;;;9.49;;
23573;SDS011;11965;53.640;10.050;2024-03-23T01:26:40;13.65;;;8.90;;
23573;SDS011;11965;53.640;10.050;2024-03-23T01:29:08;14.55;;;9.38;;
23573;SDS011;11965;53.640;10.050;2024-03-23T01:31:34;15.56;;;10.05;;
23573;SDS011;11965;53.640;10.050;2024-03-23T01:34:01;15.33;;;9.82;;
23573;SDS011;11965;53.640;10.050;2024-03-23T01:36:28;15.13;;;9.63;;
23573;SDS011;11965;53.640;10.050;2024-03-23T01:38:55;15.26;;;9.83;;
23573;SDS011;11965;53.640;10.050;2024-03-23T01:41:21;14.76;;;9.50;;
23573;SDS011;11965;53.640;10.050;2024-03-23T01:43:48;13.00;;;8.59;;
23573;SDS011;11965;53.640;10.050;2024-03-23T01:46:15;14.40;;;9.36;;
23573;SDS011;11965;53.640;10.050;2024-03-23T01:48:43;15.08;;;9.71;;
23573;SDS011;11965;53.640;10.050;2024-03-23T01:51:09;15.89;;;10.04;;
23573;SDS011;11965;53.640;10.050;2024-03-23T01:53:36;15.17;;;9.77;;
23573;SDS011;11965;53.640;10.050;2024-03-23T01:56:02;13.95;;;9.15;;
23573;SDS011;11965;53.640;10.050;2024-03-23T01:58:30;13.36;;;8.91;;
23573;SDS011;11965;53.640;10.050;2024-03-23T02:00:57;13.43;;;8.81;;
23573;SDS011;11965;53.640;10.050;2024-03-23T02:03:25;12.09;;;8.19;;
23573;SDS011;11965;53.640;10.050;2024-03-23T02:05:53;12.29;;;8.31;;
23573;SDS011;11965;53.640;10.050;2024-03-23T02:08:21;11.89;;;8.09;;
23573;SDS011;11965;53.640;10.050;2024-03-23T02:10:49;11.89;;;8.17;;
23573;SDS011;11965;53.640;10.050;2024-03-23T02:13:17;12.80;;;8.60;;
23573;SDS011;11965;53.640;10.050;2024-03-23T02:15:45;12.50;;;8.37;;
23573;SDS011;11965;53.640;10.050;2024-03-23T02:18:13;13.73;;;9.24;;
23573;SDS011;11965;53.640;10.050;2024-03-23T02:20:40;13.30;;;8.85;;
23573;SDS011;11965;53.640;10.050;2024-03-23T02:23:14;13.12;;;8.74;;
23573;SDS011;11965;53.640;10.050;2024-03-23T02:25:40;13.78;;;9.14;;
23573;SDS011;11965;53.640;10.050;2024-03-23T02:28:07;13.09;;;8.69;;
23573;SDS011;11965;53.640;10.050;2024-03-23T02:30:33;13.55;;;9.04;;
23573;SDS011;11965;53.640;10.050;2024-03-23T02:33:00;12.07;;;8.13;;
23573;SDS011;11965;53.640;10.050;2024-03-23T02:35:26;12.99;;;8.62;;
23573;SDS011;11965;53.640;10.050;2024-03-23T02:37:54;13.23;;;8.54;;
23573;SDS011;11965;53.640;10.050;2024-03-23T02:40:22;12.00;;;8.00;;
23573;SDS011;11965;53.640;10.050;2024-03-23T02:42:51;12.37;;;8.45;;
23573;SDS011;11965;53.640;10.050;2024-03-23T02:45:17;12.27;;;8.21;;
23573;SDS011;11965;53.640;10.050;2024-03-23T02:47:44;12.12;;;8.38;;
23573;SDS011;11965;53.640;10.050;2024-03-23T02:50:10;12.00;;;8.21;;
23573;SDS011;11965;53.640;10.050;2024-03-23T02:52:37;11.72;;;7.93;;
23573;SDS011;11965;53.640;10.050;2024-03-23T02:55:03;12.58;;;8.40;;
23573;SDS011;11965;53.640;10.050;2024-03-23T02:57:32;13.06;;;8.60;;
23573;SDS011;11965;53.640;10.050;2024-03-23T02:59:58;12.29;;;8.21;;
23573;SDS011;11965;53.640;10.050;2024-03-23T03:02:25;11.34;;;7.80;;
23573;SDS011;11965;53.640;10.050;2024-03-23T03:04:50;11.86;;;8.14;;
23573;SDS011;11965;53.640;10.050;2024-03-23T03:07:17;11.86;;;8.27;;
23573;SDS011;11965;53.640;10.050;2024-03-23T03:09:43;10.27;;;7.36;;
23573;SDS011;11965;53.640;10.050;2024-03-23T03:12:10;10.63;;;7.55;;
23573;SDS011;11965;53.640;10.050;2024-03-23T03:14:38;10.30;;;7.26;;
23573;SDS011;11965;53.640;10.050;2024-03-23T03:17:05;11.18;;;7.83;;
23573;SDS011;11965;53.640;10.050;2024-03-23T03:19:31;10.55;;;7.40;;
23573;SDS011;11965;53.640;10.050;2024-03-23T03:21:58;11.50;;;8.03;;
23573;SDS011;11965;53.640;10.050;2024-03-23T03:24:24;10.97;;;7.64;;
23573;SDS011;11965;53.640;10.050;2024-03-23T03:26:51;10.14;;;7.17;;
23573;SDS011;11965;53.640;10.050;2024-03-23T03:29:17;10.46;;;7.35;;
23573;SDS011;11965;53.640;10.050;2024-03-23T03:31:46;11.25;;;7.94;;
23573;SDS011;11965;53.640;10.050;2024-03-23T03:34:12;11.05;;;7.74;;
23573;SDS011;11965;53.640;10.050;2024-03-23T03:36:39;11.46;;;8.20;;
23573;SDS011;11965;53.640;10.050;2024-03-23T03:39:04;10.57;;;7.71;;
23573;SDS011;11965;53.640;10.050;2024-03-23T03:41:32;10.25;;;7.55;;
23573;SDS011;11965;53.640;10.050;2024-03-23T03:43:58;10.72;;;7.63;;
23573;SDS011;11965;53.640;10.050;2024-03-23T03:46:27;11.32;;;7.96;;
23573;SDS011;11965;53.640;10.050;2024-03-23T03:48:55;11.14;;;7.96;;
23573;SDS011;11965;53.640;10.050;2024-03-23T03:51:22;11.00;;;7.75;;
23573;SDS011;11965;53.640;10.050;2024-03-23T03:53:48;10.59;;;7.59;;
23573;SDS011;11965;53.640;10.050;2024-03-23T03:56:15;10.24;;;7.43;;
23573;SDS011;11965;53.640;10.050;2024-03-23T03:58:41;10.92;;;7.82;;
23573;SDS011;11965;53.640;10.050;2024-03-23T04:01:08;10.65;;;7.62;;
23573;SDS011;11965;53.640;10.050;2024-03-23T04:03:34;10.62;;;7.53;;
23573;SDS011;11965;53.640;10.050;2024-03-23T04:06:03;10.79;;;7.49;;
23573;SDS011;11965;53.640;10.050;2024-03-23T04:08:29;10.67;;;7.50;;
23573;SDS011;11965;53.640;10.050;2024-03-23T04:10:56;10.87;;;7.69;;
23573;SDS011;11965;53.640;10.050;2024-03-23T04:13:22;10.88;;;7.64;;
23573;SDS011;11965;53.640;10.050;2024-03-23T04:15:48;11.25;;;7.96;;
23573;SDS011;11965;53.640;10.050;2024-03-23T04:18:19;9.95;;;7.14;;
23573;SDS011;11965;53.640;10.050;2024-03-23T04:20:45;10.00;;;7.19;;
23573;SDS011;11965;53.640;10.050;2024-03-23T04:23:13;10.08;;;7.23;;
23573;SDS011;11965;53.640;10.050;2024-03-23T04:25:40;9.34;;;6.73;;
23573;SDS011;11965;53.640;10.050;2024-03-23T04:28:06;10.95;;;7.66;;
23573;SDS011;11965;53.640;10.050;2024-03-23T04:30:33;11.71;;;8.08;;
23573;SDS011;11965;53.640;10.050;2024-03-23T04:32:59;10.86;;;7.64;;
23573;SDS011;11965;53.640;10.050;2024-03-23T04:35:26;9.80;;;7.10;;
23573;SDS011;11965;53.640;10.050;2024-03-23T04:37:52;11.38;;;8.01;;
23573;SDS011;11965;53.640;10.050;2024-03-23T04:40:22;10.78;;;7.58;;
23573;SDS011;11965;53.640;10.050;2024-03-23T04:42:49;9.55;;;6.77;;
23573;SDS011;11965;53.640;10.050;2024-03-23T04:45:16;10.29;;;7.52;;
23573;SDS011;11965;53.640;10.050;2024-03-23T04:47:43;10.27;;;7.33;;
23573;SDS011;11965;53.640;10.050;2024-03-23T04:50:10;9.27;;;6.73;;
23573;SDS011;11965;53.640;10.050;2024-03-23T04:52:37;9.36;;;6.86;;
23573;SDS011;11965;53.640;10.050;2024-03-23T04:55:05;10.50;;;7.63;;
23573;SDS011;11965;53.640;10.050;2024-03-23T04:57:33;9.64;;;7.03;;
23573;SDS011;11965;53.640;10.050;2024-03-23T04:59:59;9.02;;;6.65;;
23573;SDS011;11965;53.640;10.050;2024-03-23T05:02:27;9.99;;;7.27;;
23573;SDS011;11965;53.640;10.050;2024-03-23T05:04:54;9.28;;;6.93;;
23573;SDS011;11965;53.640;10.050;2024-03-23T05:07:20;8.85;;;6.70;;
23573;SDS011;11965;53.640;10.050;2024-03-23T05:09:47;9.53;;;7.14;;
23573;SDS011;11965;53.640;10.050;2024-03-23T05:12:14;9.82;;;7.20;;
23573;SDS011;11965;53.640;10.050;2024-03-23T05:14:42;10.73;;;7.70;;
23573;SDS011;11965;53.640;10.050;2024-03-23T05:17:08;9.91;;;7.22;;
23573;SDS011;11965;53.640;10.050;2024-03-23T05:19:35;9.99;;;7.17;;
23573;SDS011;11965;53.640;10.050;2024-03-23T05:22:01;10.67;;;7.62;;
23573;SDS011;11965;53.640;10.050;2024-03-23T05:24:28;11.55;;;8.16;;
23573;SDS011;11965;53.640;10.050;2024-03-23T05:26:54;9.86;;;7.10;;
23573;SDS011;11965;53.640;10.050;2024-03-23T05:29:24;8.74;;;6.55;;
23573;SDS011;11965;53.640;10.050;2024-03-23T05:31:51;9.90;;;7.52;;
23573;SDS011;11965;53.640;10.050;2024-03-23T05:34:18;9.97;;;7.70;;
23573;SDS011;11965;53.640;10.050;2024-03-23T05:36:44;9.00;;;6.85;;
23573;SDS011;11965;53.640;10.050;2024-03-23T05:39:11;9.34;;;7.08;;
23573;SDS011;11965;53.640;10.050;2024-03-23T05:41:37;9.78;;;7.32;;
23573;SDS011;11965;53.640;10.050;2024-03-23T05:44:04;9.71;;;7.28;;
23573;SDS011;11965;53.640;10.050;2024-03-23T05:46:30;9.99;;;7.45;;
23573;SDS011;11965;53.640;10.050;2024-03-23T05:49:00;9.14;;;6.78;;
23573;SDS011;11965;53.640;10.050;2024-03-23T05:51:28;10.44;;;7.65;;
23573;SDS011;11965;53.640;10.050;2024-03-23T05:53:54;10.02;;;7.36;;
23573;SDS011;11965;53.640;10.050;2024-03-23T05:56:21;10.25;;;7.38;;
23573;SDS011;11965;53.640;10.050;2024-03-23T05:58:47;10.52;;;7.42;;
23573;SDS011;11965;53.640;10.050;2024-03-23T06:01:14;10.52;;;7.46;;
23573;SDS011;11965;53.640;10.050;2024-03-23T06:03:40;9.37;;;6.86;;
23573;SDS011;11965;53.640;10.050;2024-03-23T06:06:10;9.72;;;6.95;;
23573;SDS011;11965;53.640;10.050;2024-03-23T06:08:38;10.84;;;7.66;;
23573;SDS011;11965;53.640;10.050;2024-03-23T06:11:05;10.42;;;7.41;;
23573;SDS011;11965;53.640;10.050;2024-03-23T06:13:31;10.17;;;7.30;;
23573;SDS011;11965;53.640;10.050;2024-03-23T06:15:59;11.04;;;7.96;;
23573;SDS011;11965;53.640;10.050;2024-03-23T06:18:25;10.63;;;7.56;;
23573;SDS011;11965;53.640;10.050;2024-03-23T06:20:51;10.16;;;7.19;;
23573;SDS011;11965;53.640;10.050;2024-03-23T06:23:19;10.63;;;7.46;;
23573;SDS011;11965;53.640;10.050;2024-03-23T06:25:46;11.29;;;7.86;;
23573;SDS011;11965;53.640;10.050;2024-03-23T06:28:12;11.70;;;8.02;;
23573;SDS011;11965;53.640;10.050;2024-03-23T06:30:39;10.73;;;7.37;;
23573;SDS011;11965;53.640;10.050;2024-03-23T06:33:05;9.82;;;6.94;;
23573;SDS011;11965;53.640;10.050;2024-03-23T06:35:32;10.77;;;7.68;;
23573;SDS011;11965;53.640;10.050;2024-03-23T06:37:58;10.84;;;7.62;;
23573;SDS011;11965;53.640;10.050;2024-03-23T06:40:26;11.42;;;7.93;;
23573;SDS011;11965;53.640;10.050;2024-03-23T06:42:52;11.25;;;7.93;;
23573;SDS011;11965;53.640;10.050;2024-03-23T06:45:19;11.15;;;8.01;;
23573;SDS011;11965;53.640;10.050;2024-03-23T06:47:48;10.63;;;7.54;;
23573;SDS011;11965;53.640;10.050;2024-03-23T06:50:16;11.29;;;7.86;;
23573;SDS011;11965;53.640;10.050;2024-03-23T06:52:42;10.70;;;7.74;;
23573;SDS011;11965;53.640;10.050;2024-03-23T06:55:09;10.72;;;7.59;;
23573;SDS011;11965;53.640;10.050;2024-03-23T06:57:37;10.92;;;7.88;;
23573;SDS011;11965;53.640;10.050;2024-03-23T07:00:04;9.99;;;7.32;;
23573;SDS011;11965;53.640;10.050;2024-03-23T07:02:35;10.71;;;7.82;;
23573;SDS011;11965;53.640;10.050;2024-03-23T07:05:02;10.42;;;7.65;;
23573;SDS011;11965;53.640;10.050;2024-03-23T07:07:28;10.95;;;7.90;;
23573;SDS011;11965;53.640;10.050;2024-03-23T07:09:55;11.01;;;7.83;;
23573;SDS011;11965;53.640;10.050;2024-03-23T07:12:21;10.00;;;7.34;;
23573;SDS011;11965;53.640;10.050;2024-03-23T07:14:49;9.99;;;7.37;;
23573;SDS011;11965;53.640;10.050;2024-03-23T07:17:15;10.52;;;7.70;;
23573;SDS011;11965;53.640;10.050;2024-03-23T07:19:43;10.98;;;7.83;;
23573;SDS011;11965;53.640;10.050;2024-03-23T07:22:09;10.87;;;7.83;;
23573;SDS011;11965;53.640;10.050;2024-03-23T07:24:36;11.12;;;8.00;;
23573;SDS011;11965;53.640;10.050;2024-03-23T07:27:04;10.53;;;7.68;;
23573;SDS011;11965;53.640;10.050;2024-03-23T07:29:35;9.90;;;7.42;;
23573;SDS011;11965;53.640;10.050;2024-03-23T07:32:02;10.92;;;7.83;;
23573;SDS011;11965;53.640;10.050;2024-03-23T07:34:29;12.25;;;8.67;;
23573;SDS011;11965;53.640;10.050;2024-03-23T07:36:55;10.43;;;7.61;;
23573;SDS011;11965;53.640;10.050;2024-03-23T07:39:22;11.70;;;8.29;;
23573;SDS011;11965;53.640;10.050;2024-03-23T07:41:48;11.53;;;8.13;;
23573;SDS011;11965;53.640;10.050;2024-03-23T07:44:15;10.27;;;7.53;;
23573;SDS011;11965;53.640;10.050;2024-03-23T07:46:41;10.31;;;7.54;;
23573;SDS011;11965;53.640;10.050;2024-03-23T07:49:09;10.63;;;7.72;;
23573;SDS011;11965;53.640;10.050;2024-03-23T07:51:35;9.74;;;7.21;;
23573;SDS011;11965;53.640;10.050;2024-03-23T07:54:04;8.75;;;6.76;;
23573;SDS011;11965;53.640;10.050;2024-03-23T07:56:30;9.45;;;7.10;;
23573;SDS011;11965;53.640;10.050;2024-03-23T07:58:57;10.17;;;7.64;;
23573;SDS011;11965;53.640;10.050;2024-03-23T08:01:23;10.18;;;7.56;;
23573;SDS011;11965;53.640;10.050;2024-03-23T08:03:50;10.11;;;7.50;;
23573;SDS011;11965;53.640;10.050;2024-03-23T08:06:18;9.71;;;7.17;;
23573;SDS011;11965;53.640;10.050;2024-03-23T08:08:48;10.54;;;7.70;;
23573;SDS011;11965;53.640;10.050;2024-03-23T08:11:16;9.40;;;6.91;;
23573;SDS011;11965;53.640;10.050;2024-03-23T08:13:44;10.53;;;7.61;;
23573;SDS011;11965;53.640;10.050;2024-03-23T08:16:10;9.83;;;7.15;;
23573;SDS011;11965;53.640;10.050;2024-03-23T08:18:39;10.28;;;7.35;;
23573;SDS011;11965;53.640;10.050;2024-03-23T08:21:05;9.95;;;7.22;;
23573;SDS011;11965;53.640;10.050;2024-03-23T08:23:34;10.32;;;7.33;;
23573;SDS011;11965;53.640;10.050;2024-03-23T08:26:03;9.75;;;7.09;;
23573;SDS011;11965;53.640;10.050;2024-03-23T08:28:31;9.02;;;6.51;;
23573;SDS011;11965;53.640;10.050;2024-03-23T08:31:00;9.76;;;6.92;;
23573;SDS011;11965;53.640;10.050;2024-03-23T08:33:28;10.74;;;7.57;;
23573;SDS011;11965;53.640;10.050;2024-03-23T08:35:54;10.26;;;7.26;;
23573;SDS011;11965;53.640;10.050;2024-03-23T08:38:22;9.36;;;6.74;;
23573;SDS011;11965;53.640;10.050;2024-03-23T08:40:55;8.79;;;6.54;;
23573;SDS011;11965;53.640;10.050;2024-03-23T08:43:23;9.09;;;6.81;;
23573;SDS011;11965;53.640;10.050;2024-03-23T08:45:49;9.73;;;6.92;;
23573;SDS011;11965;53.640;10.050;2024-03-23T08:48:17;9.61;;;6.66;;
23573;SDS011;11965;53.640;10.050;2024-03-23T08:50:45;9.91;;;6.75;;
23573;SDS011;11965;53.640;10.050;2024-03-23T08:53:12;8.82;;;6.12;;
23573;SDS011;11965;53.640;10.050;2024-03-23T08:55:38;9.44;;;6.72;;
23573;SDS011;11965;53.640;10.050;2024-03-23T08:58:07;9.50;;;6.66;;
23573;SDS011;11965;53.640;10.050;2024-03-23T09:00:34;9.52;;;6.73;;
23573;SDS011;11965;53.640;10.050;2024-03-23T09:03:01;9.03;;;6.47;;
23573;SDS011;11965;53.640;10.050;2024-03-23T09:05:27;8.95;;;6.40;;
23573;SDS011;11965;53.640;10.050;2024-03-23T09:08:00;8.81;;;6.11;;
23573;SDS011;11965;53.640;10.050;2024-03-23T09:10:26;9.04;;;6.28;;
23573;SDS011;11965;53.640;10.050;2024-03-23T09:12:53;8.46;;;5.88;;
23573;SDS011;11965;53.640;10.050;2024-03-23T09:15:21;7.78;;;5.54;;
23573;SDS011;11965;53.640;10.050;2024-03-23T09:17:47;8.05;;;5.75;;
23573;SDS011;11965;53.640;10.050;2024-03-23T09:20:14;8.06;;;5.78;;
23573;SDS011;11965;53.640;10.050;2024-03-23T09:22:40;8.11;;;5.87;;
23573;SDS011;11965;53.640;10.050;2024-03-23T09:25:07;7.53;;;5.35;;
23573;SDS011;11965;53.640;10.050;2024-03-23T09:27:33;7.05;;;5.01;;
23573;SDS011;11965;53.640;10.050;2024-03-23T09:30:00;7.67;;;5.45;;
23573;SDS011;11965;53.640;10.050;2024-03-23T09:32:28;7.56;;;5.37;;
23573;SDS011;11965;53.640;10.050;2024-03-23T09:34:55;8.19;;;5.78;;
23573;SDS011;11965;53.640;10.050;2024-03-23T09:37:21;7.41;;;5.40;;
23573;SDS011;11965;53.640;10.050;2024-03-23T09:39:48;7.03;;;5.44;;
23573;SDS011;11965;53.640;10.050;2024-03-23T09:42:13;7.57;;;5.78;;
23573;SDS011;11965;53.640;10.050;2024-03-23T09:44:40;7.10;;;5.31;;
23573;SDS011;11965;53.640;10.050;2024-03-23T09:47:06;6.76;;;5.20;;
23573;SDS011;11965;53.640;10.050;2024-03-23T09:49:36;6.63;;;5.02;;
23573;SDS011;11965;53.640;10.050;2024-03-23T09:52:03;7.17;;;5.36;;
23573;SDS011;11965;53.640;10.050;2024-03-23T09:54:31;6.81;;;5.12;;
23573;SDS011;11965;53.640;10.050;2024-03-23T09:56:58;6.95;;;5.07;;
23573;SDS011;11965;53.640;10.050;2024-03-23T10:00:05;6.11;;;4.69;;
23573;SDS011;11965;53.640;10.050;2024-03-23T10:02:33;5.92;;;4.40;;
23573;SDS011;11965;53.640;10.050;2024-03-23T10:05:01;5.71;;;4.17;;
23573;SDS011;11965;53.640;10.050;2024-03-23T10:07:29;5.39;;;3.98;;
23573;SDS011;11965;53.640;10.050;2024-03-23T10:09:55;5.18;;;3.87;;
23573;SDS011;11965;53.640;10.050;2024-03-23T10:12:22;5.45;;;4.05;;
23573;SDS011;11965;53.640;10.050;2024-03-23T10:14:49;5.40;;;3.99;;
23573;SDS011;11965;53.640;10.050;2024-03-23T10:17:17;6.14;;;4.42;;
23573;SDS011;11965;53.640;10.050;2024-03-23T10:19:44;5.41;;;4.04;;
23573;SDS011;11965;53.640;10.050;2024-03-23T10:22:14;6.04;;;4.55;;
23573;SDS011;11965;53.640;10.050;2024-03-23T10:24:43;6.73;;;4.96;;
23573;SDS011;11965;53.640;10.050;2024-03-23T10:27:12;6.41;;;4.78;;
23573;SDS011;11965;53.640;10.050;2024-03-23T10:29:41;7.34;;;5.52;;
23573;SDS011;11965;53.640;10.050;2024-03-23T10:32:08;6.39;;;4.87;;
23573;SDS011;11965;53.640;10.050;2024-03-23T10:34:35;6.99;;;5.40;;
23573;SDS011;11965;53.640;10.050;2024-03-23T10:37:02;6.44;;;5.09;;
23573;SDS011;11965;53.640;10.050;2024-03-23T10:39:32;5.62;;;4.44;;
23573;SDS011;11965;53.640;10.050;2024-03-23T10:42:02;5.12;;;4.09;;
23573;SDS011;11965;53.640;10.050;2024-03-23T10:44:29;5.00;;;3.91;;
23573;SDS011;11965;53.640;10.050;2024-03-23T10:46:57;4.37;;;3.44;;
23573;SDS011;11965;53.640;10.050;2024-03-23T10:49:26;4.74;;;3.62;;
23573;SDS011;11965;53.640;10.050;2024-03-23T10:51:56;3.90;;;2.85;;
23573;SDS011;11965;53.640;10.050;2024-03-23T10:54:24;4.77;;;3.48;;
23573;SDS011;11965;53.640;10.050;2024-03-23T10:56:55;3.85;;;2.79;;
23573;SDS011;11965;53.640;10.050;2024-03-23T10:59:25;4.47;;;3.25;;
23573;SDS011;11965;53.640;10.050;2024-03-23T11:01:54;4.49;;;3.28;;
23573;SDS011;11965;53.640;10.050;2024-03-23T11:04:29;5.31;;;3.77;;
23573;SDS011;11965;53.640;10.050;2024-03-23T11:06:56;5.08;;;3.57;;
23573;SDS011;11965;53.640;10.050;2024-03-23T11:09:38;5.06;;;3.64;;
23573;SDS011;11965;53.640;10.050;2024-03-23T11:14:54;4.25;;;3.07;;
23573;SDS011;11965;53.640;10.050;2024-03-23T11:17:25;4.03;;;2.84;;
23573;SDS011;11965;53.640;10.050;2024-03-23T11:19:53;4.71;;;3.41;;
23573;SDS011;11965;53.640;10.050;2024-03-23T11:22:40;4.49;;;3.28;;
23573;SDS011;11965;53.640;10.050;2024-03-23T11:25:18;4.53;;;3.36;;
23573;SDS011;11965;53.640;10.050;2024-03-23T11:27:48;4.58;;;3.32;;
23573;SDS011;11965;53.640;10.050;2024-03-23T11:30:16;4.58;;;3.28;;
23573;SDS011;11965;53.640;10.050;2024-03-23T11:32:45;4.59;;;3.35;;
23573;SDS011;11965;53.640;10.050;2024-03-23T11:35:24;4.51;;;3.29;;
23573;SDS011;11965;53.640;10.050;2024-03-23T11:38:08;4.01;;;2.93;;
23573;SDS011;11965;53.640;10.050;2024-03-23T11:40:35;3.65;;;2.69;;
23573;SDS011;11965;53.640;10.050;2024-03-23T11:43:05;4.59;;;3.42;;
23573;SDS011;11965;53.640;10.050;2024-03-23T11:45:36;3.54;;;2.68;;
23573;SDS011;11965;53.640;10.050;2024-03-23T11:48:06;3.84;;;2.95;;
23573;SDS011;11965;53.640;10.050;2024-03-23T11:50:33;3.29;;;2.57;;
23573;SDS011;11965;53.640;10.050;2024-03-23T11:53:11;4.13;;;3.17;;
23573;SDS011;11965;53.640;10.050;2024-03-23T11:55:40;4.23;;;3.23;;
23573;SDS011;11965;53.640;10.050;2024-03-23T11:58:12;4.19;;;3.20;;
23573;SDS011;11965;53.640;10.050;2024-03-23T12:00:38;4.13;;;3.24;;
23573;SDS011;11965;53.640;10.050;2024-03-23T12:03:06;3.99;;;3.08;;
23573;SDS011;11965;53.640;10.050;2024-03-23T12:05:33;3.16;;;2.38;;
23573;SDS011;11965;53.640;10.050;2024-03-23T12:08:16;2.22;;;1.70;;
23573;SDS011;11965;53.640;10.050;2024-03-23T12:10:44;1.74;;;1.38;;
23573;SDS011;11965;53.640;10.050;2024-03-23T12:13:15;1.67;;;1.32;;
23573;SDS011;11965;53.640;10.050;2024-03-23T12:15:43;1.27;;;1.01;;
23573;SDS011;11965;53.640;10.050;2024-03-23T12:18:10;1.13;;;0.90;;
23573;SDS011;11965;53.640;10.050;2024-03-23T12:20:37;1.93;;;1.54;;
23573;SDS011;11965;53.640;10.050;2024-03-23T12:23:08;1.44;;;1.15;;
23573;SDS011;11965;53.640;10.050;2024-03-23T12:25:37;1.56;;;1.24;;
23573;SDS011;11965;53.640;10.050;2024-03-23T12:28:05;1.92;;;1.55;;
23573;SDS011;11965;53.640;10.050;2024-03-23T12:30:33;1.93;;;1.56;;
23573;SDS011;11965;53.640;10.050;2024-03-23T12:33:02;2.00;;;1.62;;
23573;SDS011;11965;53.640;10.050;2024-03-23T12:35:29;1.95;;;1.58;;
23573;SDS011;11965;53.640;10.050;2024-03-23T12:37:55;1.92;;;1.56;;
23573;SDS011;11965;53.640;10.050;2024-03-23T12:40:22;2.19;;;1.79;;
23573;SDS011;11965;53.640;10.050;2024-03-23T12:42:49;1.94;;;1.59;;
23573;SDS011;11965;53.640;10.050;2024-03-23T12:45:15;2.47;;;2.06;;
23573;SDS011;11965;53.640;10.050;2024-03-23T12:47:43;1.88;;;1.60;;
23573;SDS011;11965;53.640;10.050;2024-03-23T12:50:09;1.77;;;1.52;;
23573;SDS011;11965;53.640;10.050;2024-03-23T12:52:37;1.81;;;1.57;;
23573;SDS011;11965;53.640;10.050;2024-03-23T12:55:03;1.16;;;1.03;;
23573;SDS011;11965;53.640;10.050;2024-03-23T12:57:31;0.95;;;0.83;;
23573;SDS011;11965;53.640;10.050;2024-03-23T12:59:58;0.98;;;0.85;;
23573;SDS011;11965;53.640;10.050;2024-03-23T13:02:25;0.80;;;0.69;;
23573;SDS011;11965;53.640;10.050;2024-03-23T13:04:53;0.76;;;0.66;;
23573;SDS011;11965;53.640;10.050;2024-03-23T13:07:21;0.79;;;0.69;;
23573;SDS011;11965;53.640;10.050;2024-03-23T13:09:49;0.83;;;0.72;;
23573;SDS011;11965;53.640;10.050;2024-03-23T13:12:17;0.81;;;0.71;;
23573;SDS011;11965;53.640;10.050;2024-03-23T13:14:44;0.82;;;0.71;;
23573;SDS011;11965;53.640;10.050;2024-03-23T13:17:11;1.03;;;0.90;;
23573;SDS011;11965;53.640;10.050;2024-03-23T13:19:37;0.84;;;0.73;;
23573;SDS011;11965;53.640;10.050;2024-03-23T13:22:06;1.00;;;0.88;;
23573;SDS011;11965;53.640;10.050;2024-03-23T13:24:32;0.98;;;0.88;;
23573;SDS011;11965;53.640;10.050;2024-03-23T13:26:59;0.92;;;0.82;;
23573;SDS011;11965;53.640;10.050;2024-03-23T13:29:25;1.23;;;1.09;;
23573;SDS011;11965;53.640;10.050;2024-03-23T13:31:52;1.33;;;1.20;;
23573;SDS011;11965;53.640;10.050;2024-03-23T13:34:19;1.74;;;1.58;;
23573;SDS011;11965;53.640;10.050;2024-03-23T13:36:46;1.67;;;1.53;;
23573;SDS011;11965;53.640;10.050;2024-03-23T13:39:14;1.68;;;1.53;;
23573;SDS011;11965;53.640;10.050;2024-03-23T13:41:42;1.67;;;1.52;;
23573;SDS011;11965;53.640;10.050;2024-03-23T13:44:09;1.75;;;1.59;;
23573;SDS011;11965;53.640;10.050;2024-03-23T13:46:37;8.76;;;8.43;;
23573;SDS011;11965;53.640;10.050;2024-03-23T13:49:04;3.63;;;3.61;;
23573;SDS011;11965;53.640;10.050;2024-03-23T13:51:31;3.55;;;3.54;;
23573;SDS011;11965;53.640;10.050;2024-03-23T13:53:57;2.81;;;2.80;;
23573;SDS011;11965;53.640;10.050;2024-03-23T13:56:27;5.23;;;5.23;;
23573;SDS011;11965;53.640;10.050;2024-03-23T13:58:54;7.89;;;7.89;;
23573;SDS011;11965;53.640;10.050;2024-03-23T14:01:23;5.91;;;5.91;;
23573;SDS011;11965;53.640;10.050;2024-03-23T14:03:49;5.09;;;5.09;;
23573;SDS011;11965;53.640;10.050;2024-03-23T14:06:17;2.83;;;2.83;;
23573;SDS011;11965;53.640;10.050;2024-03-23T14:08:43;2.61;;;2.61;;
23573;SDS011;11965;53.640;10.050;2024-03-23T14:11:10;5.86;;;5.86;;
23573;SDS011;11965;53.640;10.050;2024-03-23T14:13:37;9.88;;;9.88;;
23573;SDS011;11965;53.640;10.050;2024-03-23T14:16:04;4.33;;;4.33;;
23573;SDS011;11965;53.640;10.050;2024-03-23T14:18:30;6.17;;;6.17;;
23573;SDS011;11965;53.640;10.050;2024-03-23T14:20:58;4.24;;;4.24;;
23573;SDS011;11965;53.640;10.050;2024-03-23T14:23:25;5.48;;;5.47;;
23573;SDS011;11965;53.640;10.050;2024-03-23T14:25:53;4.40;;;4.39;;
23573;SDS011;11965;53.640;10.050;2024-03-23T14:28:20;4.00;;;3.99;;
23573;SDS011;11965;53.640;10.050;2024-03-23T14:30:49;3.81;;;3.78;;
23573;SDS011;11965;53.640;10.050;2024-03-23T14:33:15;3.85;;;3.74;;
23573;SDS011;11965;53.640;10.050;2024-03-23T14:35:43;2.42;;;2.34;;
23573;SDS011;11965;53.640;10.050;2024-03-23T14:38:16;4.39;;;4.17;;
23573;SDS011;11965;53.640;10.050;2024-03-23T14:40:44;3.03;;;2.87;;
23573;SDS011;11965;53.640;10.050;2024-03-23T14:43:10;3.01;;;2.82;;
23573;SDS011;11965;53.640;10.050;2024-03-23T14:45:37;4.30;;;4.13;;
23573;SDS011;11965;53.640;10.050;2024-03-23T14:48:04;4.36;;;4.27;;
23573;SDS011;11965;53.640;10.050;2024-03-23T14:50:34;4.70;;;4.57;;
23573;SDS011;11965;53.640;10.050;2024-03-23T14:53:00;6.27;;;6.17;;
23573;SDS011;11965;53.640;10.050;2024-03-23T14:55:27;7.42;;;7.40;;
23573;SDS011;11965;53.640;10.050;2024-03-23T14:57:54;5.12;;;5.12;;
23573;SDS011;11965;53.640;10.050;2024-03-23T15:00:20;2.71;;;2.67;;
23573;SDS011;11965;53.640;10.050;2024-03-23T15:02:46;4.37;;;4.27;;
23573;SDS011;11965;53.640;10.050;2024-03-23T15:05:15;2.92;;;2.80;;
23573;SDS011;11965;53.640;10.050;2024-03-23T15:07:41;2.57;;;2.47;;
23573;SDS011;11965;53.640;10.050;2024-03-23T15:10:08;2.04;;;1.91;;
23573;SDS011;11965;53.640;10.050;2024-03-23T15:12:35;2.25;;;2.05;;
23573;SDS011;11965;53.640;10.050;2024-03-23T15:15:02;2.18;;;1.96;;
23573;SDS011;11965;53.640;10.050;2024-03-23T15:17:29;2.44;;;2.15;;
23573;SDS011;11965;53.640;10.050;2024-03-23T15:19:59;2.20;;;1.96;;
23573;SDS011;11965;53.640;10.050;2024-03-23T15:22:27;1.96;;;1.73;;
23573;SDS011;11965;53.640;10.050;2024-03-23T15:24:53;3.22;;;2.84;;
23573;SDS011;11965;53.640;10.050;2024-03-23T15:27:19;5.51;;;5.22;;